Time;durP1;ratioP1;P1;durP2;ratioP2;P2;SDS_P1;SDS_P2;PMS_P1;PMS_P2;Temp;Humidity;BMP_temperature;BMP_pressure;BME280_temperature;BME280_humidity;BME280_pressure;Samples;Min_cycle;Max_cycle;Signal;HPM_P1;HPM_P2
2021/09/06 06:01:08;;;;;;;3.05;2.85;;;;;;;13.58;91.98;102319.28;6410696;27;20585;-73
2021/09/06 06:04:16;;;;;;;3.22;2.90;;;;;;;13.74;91.32;102307.97;6425988;27;20359;-74
2021/09/06 06:07:24;;;;;;;3.10;2.85;;;;;;;13.87;90.85;102314.59;6392053;27;20228;-74
2021/09/06 06:10:28;;;;;;;5.25;2.65;;;;;;;14.01;90.00;102313.59;6392481;27;20272;-74
2021/09/06 06:13:34;;;;;;;2.88;2.47;;;;;;;14.17;88.66;102314.09;6392386;27;20272;-74
2021/09/06 06:16:41;;;;;;;2.42;2.42;;;;;;;14.18;88.92;102310.28;6425605;27;20197;-75
2021/09/06 06:20:08;;;;;;;5.00;2.80;;;;;;;14.31;88.00;102309.50;6393633;27;20397;-75
2021/09/06 06:24:01;;;;;;;3.03;2.83;;;;;;;14.36;87.00;102296.88;6410174;27;20184;-74
2021/09/06 06:27:57;;;;;;;5.90;2.70;;;;;;;14.44;86.73;102301.31;6331513;28;20369;-74
2021/09/06 06:31:21;;;;;;;2.92;2.70;;;;;;;14.52;85.83;102311.25;6400583;27;20196;-74
2021/09/06 06:34:44;;;;;;;2.42;2.30;;;;;;;14.48;87.16;102302.63;6392031;27;20200;-74
2021/09/06 06:38:03;;;;;;;8.18;2.90;;;;;;;14.65;85.68;102306.66;6391828;27;20200;-75
2021/09/06 06:41:25;;;;;;;3.10;2.45;;;;;;;14.64;85.80;102309.59;6393099;27;20197;-75
2021/09/06 06:44:58;;;;;;;5.85;2.53;;;;;;;14.76;85.71;102307.94;6393900;27;20240;-75
2021/09/06 06:48:30;;;;;;;2.65;2.45;;;;;;;14.82;84.18;102313.44;6395979;27;20185;-75
2021/09/06 06:52:16;;;;;;;4.93;2.63;;;;;;;14.82;84.52;102310.69;6359604;27;20204;-75
2021/09/06 06:55:55;;;;;;;7.18;2.63;;;;;;;14.99;83.21;102309.25;6396247;27;20181;-73
2021/09/06 06:59:29;;;;;;;3.53;2.28;;;;;;;15.13;81.98;102303.72;6394368;27;20237;-74
2021/09/06 07:02:53;;;;;;;2.40;2.20;;;;;;;15.00;82.23;102308.16;6392790;27;20188;-75
2021/09/06 07:06:21;;;;;;;2.50;2.40;;;;;;;15.13;82.54;102322.97;6421602;27;20204;-75
2021/09/06 07:09:46;;;;;;;13.50;2.35;;;;;;;15.17;81.90;102316.00;6391524;27;20200;-75
2021/09/06 07:13:11;;;;;;;4.25;2.08;;;;;;;15.19;81.50;102323.00;6375553;27;20239;-74
2021/09/06 07:16:32;;;;;;;2.67;2.40;;;;;;;15.29;81.00;102319.81;6375180;27;20246;-74
2021/09/06 07:20:00;;;;;;;2.40;2.30;;;;;;;15.23;81.92;102315.19;6375797;27;20235;-74
2021/09/06 07:23:22;;;;;;;3.13;2.10;;;;;;;15.28;81.25;102318.13;6334820;27;20231;-75
2021/09/06 07:26:46;;;;;;;2.53;2.35;;;;;;;15.34;80.70;102322.75;6375415;27;20170;-75
2021/09/06 07:30:07;;;;;;;5.28;2.20;;;;;;;15.36;80.65;102317.88;6374355;27;20448;-75
2021/09/06 07:33:30;;;;;;;2.50;2.00;;;;;;;15.38;80.62;102313.88;6375225;27;20458;-75
2021/09/06 07:37:01;;;;;;;2.28;2.17;;;;;;;15.49;80.88;102320.66;6328895;27;20504;-74
2021/09/06 07:40:23;;;;;;;4.70;2.10;;;;;;;15.52;82.33;102303.72;6375494;27;20224;-74
2021/09/06 07:43:32;;;;;;;3.70;2.22;;;;;;;15.54;80.86;102312.59;6390150;27;20203;-74
2021/09/06 07:46:37;;;;;;;2.25;2.13;;;;;;;15.64;80.91;102313.00;6372107;27;20403;-74
2021/09/06 07:49:43;;;;;;;5.00;1.98;;;;;;;15.58;80.51;102313.88;6373089;27;20201;-74
2021/09/06 07:52:49;;;;;;;2.15;2.03;;;;;;;15.75;80.04;102315.09;6372323;27;20477;-75
2021/09/06 07:55:54;;;;;;;3.80;2.05;;;;;;;15.85;79.67;102315.50;6390990;27;20189;-75
2021/09/06 07:59:03;;;;;;;4.97;2.58;;;;;;;15.89;78.93;102314.03;6355729;28;20528;-75
2021/09/06 08:02:10;;;;;;;4.05;2.70;;;;;;;15.86;79.62;102308.94;6371685;27;20422;-75
2021/09/06 08:05:24;;;;;;;1.98;1.88;;;;;;;16.00;79.35;102307.84;6372219;27;20242;-75
2021/09/06 08:08:33;;;;;;;2.35;2.20;;;;;;;16.05;79.08;102310.78;6372156;27;20209;-75
2021/09/06 08:11:39;;;;;;;6.35;2.53;;;;;;;16.09;78.99;102306.53;6372101;27;20239;-75
2021/09/06 08:14:46;;;;;;;4.07;2.97;;;;;;;16.10;79.06;102299.94;6372749;27;20265;-74
2021/09/06 08:17:52;;;;;;;9.23;2.38;;;;;;;16.15;78.08;102310.34;6371426;27;20204;-74
2021/09/06 08:20:58;;;;;;;2.67;2.47;;;;;;;16.13;78.32;102306.94;6372978;27;20211;-74
2021/09/06 08:24:04;;;;;;;2.47;2.33;;;;;;;16.17;77.00;102303.53;6389635;27;20259;-74
2021/09/06 08:27:09;;;;;;;2.65;2.17;;;;;;;16.18;76.74;102299.72;6371752;27;20271;-74
2021/09/06 08:30:28;;;;;;;2.42;2.33;;;;;;;16.13;78.08;102305.03;6372874;27;20425;-74
2021/09/06 08:33:53;;;;;;;2.38;2.28;;;;;;;16.24;76.72;102322.78;6373635;27;20236;-74
2021/09/06 08:37:00;;;;;;;2.00;1.88;;;;;;;16.33;76.66;102323.38;6372118;27;20189;-74
2021/09/06 08:40:09;;;;;;;2.22;2.20;;;;;;;16.29;76.72;102317.47;6370517;27;20217;-74
2021/09/06 08:43:19;;;;;;;2.20;2.10;;;;;;;16.24;76.90;102309.88;6371914;27;20213;-75
2021/09/06 08:46:29;;;;;;;2.65;2.20;;;;;;;16.21;77.45;102315.81;6370733;27;20542;-75
2021/09/06 08:49:35;;;;;;;2.50;2.40;;;;;;;16.23;77.58;102324.69;6371458;27;20249;-74
2021/09/06 08:52:41;;;;;;;2.20;2.10;;;;;;;16.18;76.99;102316.22;6370976;27;20200;-74
2021/09/06 08:55:49;;;;;;;3.63;3.33;;;;;;;16.12;78.13;102317.13;6371174;27;20181;-75
2021/09/06 08:59:12;;;;;;;3.20;2.20;;;;;;;16.03;78.76;102317.56;6361093;28;20481;-75
2021/09/06 09:02:24;;;;;;;6.72;2.42;;;;;;;16.07;77.68;102319.69;6362489;28;20226;-75
2021/09/06 09:06:00;;;;;;;6.05;2.15;;;;;;;16.12;77.41;102305.25;6361737;28;20470;-75
2021/09/06 09:09:47;;;;;;;3.17;2.20;;;;;;;16.00;77.67;102313.34;6362063;28;20205;-74
2021/09/06 09:13:37;;;;;;;2.10;2.00;;;;;;;16.21;77.33;102321.31;6362976;28;20182;-75
2021/09/06 09:17:34;;;;;;;5.47;2.47;;;;;;;16.21;77.60;102313.03;6345835;28;20198;-74
2021/09/06 09:21:14;;;;;;;2.25;2.25;;;;;;;16.22;77.14;102312.00;6362281;28;20247;-74
2021/09/06 09:25:02;;;;;;;2.42;2.28;;;;;;;16.22;77.83;102309.25;6362092;28;20198;-74
2021/09/06 09:29:23;;;;;;;2.40;2.20;;;;;;;16.24;77.09;102317.28;6333714;27;20832;-74
2021/09/06 09:33:08;;;;;;;2.40;2.30;;;;;;;16.31;77.84;102309.00;6360624;28;20201;-73
2021/09/06 09:36:54;;;;;;;6.05;2.20;;;;;;;16.52;76.34;102311.41;6332227;28;20195;-74
2021/09/06 09:40:34;;;;;;;2.38;2.28;;;;;;;16.57;75.80;102300.59;6333731;28;20186;-75
2021/09/06 09:43:40;;;;;;;4.35;2.50;;;;;;;16.63;75.36;102307.97;6332903;28;20451;-74
2021/09/06 09:47:00;;;;;;;4.47;2.10;;;;;;;16.63;75.43;102302.47;6332707;28;20214;-74
2021/09/06 09:50:10;;;;;;;3.45;2.40;;;;;;;16.62;76.22;102306.28;6333349;28;20258;-74
2021/09/06 09:53:19;;;;;;;10.13;2.28;;;;;;;16.69;76.65;102310.69;6333739;28;20214;-74
2021/09/06 09:56:24;;;;;;;2.88;2.67;;;;;;;16.80;75.08;102298.09;6334118;28;20242;-75
2021/09/06 09:59:29;;;;;;;6.68;2.45;;;;;;;16.81;75.51;102310.84;6333623;28;20190;-73
2021/09/06 10:02:36;;;;;;;6.10;2.15;;;;;;;16.90;74.40;102303.97;6333391;28;20183;-74
2021/09/06 10:05:43;;;;;;;3.55;2.53;;;;;;;16.96;74.42;102303.09;6332085;28;20274;-74
2021/09/06 10:08:48;;;;;;;2.58;2.38;;;;;;;17.10;74.12;102310.16;6332089;28;20238;-74
2021/09/06 10:12:06;;;;;;;4.82;2.28;;;;;;;17.13;73.72;102309.72;6332987;28;20183;-74
2021/09/06 10:15:11;;;;;;;2.13;2.03;;;;;;;17.12;73.52;102297.03;6333288;28;20194;-74
2021/09/06 10:18:20;;;;;;;2.47;2.38;;;;;;;17.08;73.53;102306.78;6333336;28;20225;-74
2021/09/06 10:21:29;;;;;;;4.75;2.38;;;;;;;17.16;74.48;102309.28;6333047;28;20190;-74
2021/09/06 10:24:34;;;;;;;2.22;2.10;;;;;;;17.26;73.42;102309.63;6332002;28;20242;-74
2021/09/06 10:27:52;;;;;;;5.45;3.40;;;;;;;17.19;74.18;102297.81;6332435;28;20246;-75
2021/09/06 10:30:56;;;;;;;2.70;2.60;;;;;;;17.23;75.01;102295.44;6332688;28;20183;-74
2021/09/06 10:34:08;;;;;;;3.70;2.45;;;;;;;17.16;75.88;102292.72;6332639;28;20183;-73
2021/09/06 10:37:15;;;;;;;2.25;2.08;;;;;;;17.33;73.44;102295.78;6332326;28;20187;-74
2021/09/06 10:40:27;;;;;;;3.65;2.17;;;;;;;17.26;73.34;102287.53;6316192;28;20205;-75
2021/09/06 10:43:43;;;;;;;3.92;2.42;;;;;;;17.50;71.67;102294.97;6315920;28;20259;-74
2021/09/06 10:46:55;;;;;;;2.13;2.10;;;;;;;17.59;71.56;102294.69;6315580;28;20191;-74
2021/09/06 10:50:11;;;;;;;2.35;2.25;;;;;;;17.69;71.39;102292.25;6316207;28;20190;-74
2021/09/06 10:53:18;;;;;;;2.53;2.33;;;;;;;17.72;71.80;102281.59;6314902;28;20215;-74
2021/09/06 10:56:25;;;;;;;2.30;2.20;;;;;;;17.75;71.31;102291.31;6314670;28;20467;-74
2021/09/06 10:59:31;;;;;;;4.15;1.88;;;;;;;17.70;72.77;102288.41;6315440;28;20194;-74
2021/09/06 11:02:37;;;;;;;2.33;2.17;;;;;;;17.85;71.41;102291.63;6314924;28;20183;-74
2021/09/06 11:05:51;;;;;;;2.53;2.40;;;;;;;17.77;71.00;102300.25;6315109;28;20219;-74
2021/09/06 11:08:56;;;;;;;2.38;2.17;;;;;;;17.87;71.39;102289.50;6315431;28;20218;-75
2021/09/06 11:12:05;;;;;;;5.45;2.42;;;;;;;17.89;71.05;102284.59;6314065;28;20360;-75
2021/09/06 11:15:11;;;;;;;4.07;2.10;;;;;;;17.87;70.16;102290.31;6315092;28;20184;-74
2021/09/06 11:18:16;;;;;;;2.20;2.20;;;;;;;17.97;69.56;102289.81;6313815;28;20509;-74
2021/09/06 11:21:24;;;;;;;6.75;2.58;;;;;;;17.97;70.23;102289.81;6313647;28;20530;-74
2021/09/06 11:24:28;;;;;;;5.32;2.45;;;;;;;17.93;70.40;102299.59;6315457;28;20253;-74
2021/09/06 11:27:34;;;;;;;2.28;2.17;;;;;;;17.87;70.00;102295.03;6313657;28;20235;-75
2021/09/06 11:30:40;;;;;;;2.65;2.42;;;;;;;17.84;68.75;102289.97;6315429;28;20190;-74
2021/09/06 11:33:46;;;;;;;2.50;2.40;;;;;;;17.78;69.45;102297.25;6313771;28;20375;-74
2021/09/06 11:36:55;;;;;;;2.17;2.08;;;;;;;17.98;69.27;102291.47;6313738;28;20222;-73
2021/09/06 11:39:59;;;;;;;2.47;2.38;;;;;;;17.99;70.52;102287.66;6314259;28;20194;-74
2021/09/06 11:43:05;;;;;;;2.60;2.08;;;;;;;17.96;70.10;102282.59;6313365;28;20184;-74
2021/09/06 11:46:14;;;;;;;2.63;2.35;;;;;;;18.10;70.05;102284.13;6314302;28;20263;-74
2021/09/06 11:49:19;;;;;;;2.60;2.17;;;;;;;18.22;68.97;102282.25;6312918;28;20572;-74
2021/09/06 11:52:35;;;;;;;3.28;2.20;;;;;;;18.28;69.00;102292.38;6312101;28;20548;-75
2021/09/06 11:55:51;;;;;;;6.10;2.50;;;;;;;18.32;68.06;102290.84;6313796;28;20247;-74
2021/09/06 11:59:15;;;;;;;3.85;2.40;;;;;;;18.12;67.53;102276.44;6312975;28;20471;-74
2021/09/06 12:02:19;;;;;;;3.78;2.47;;;;;;;18.17;68.11;102284.03;6313646;28;20218;-74
2021/09/06 12:05:24;;;;;;;3.13;2.33;;;;;;;18.08;68.56;102281.56;6313129;28;20187;-74
2021/09/06 12:08:31;;;;;;;3.33;1.90;;;;;;;18.10;68.69;102284.94;6312472;28;20261;-74
2021/09/06 12:11:37;;;;;;;3.13;2.30;;;;;;;18.19;67.70;102276.34;6312402;28;20396;-74
2021/09/06 12:14:44;;;;;;;2.55;2.35;;;;;;;18.31;68.47;102275.31;6312464;28;20385;-74
2021/09/06 12:17:48;;;;;;;4.20;2.40;;;;;;;18.36;68.44;102272.69;6313756;28;20187;-74
2021/09/06 12:21:02;;;;;;;2.20;1.92;;;;;;;18.27;67.39;102274.09;6312214;28;20246;-75
2021/09/06 12:24:11;;;;;;;3.92;2.25;;;;;;;18.15;66.94;102265.75;6313626;28;20251;-74
2021/09/06 12:27:20;;;;;;;2.20;2.10;;;;;;;18.28;67.24;102270.28;6313242;28;20235;-75
2021/09/06 12:30:29;;;;;;;2.42;2.20;;;;;;;18.37;68.03;102257.81;6312500;28;20212;-75
2021/09/06 12:33:33;;;;;;;2.08;2.00;;;;;;;18.44;67.74;102247.50;6313482;28;20249;-75
2021/09/06 12:36:38;;;;;;;2.40;2.20;;;;;;;18.15;67.23;102253.88;6312931;28;20192;-74
2021/09/06 12:39:44;;;;;;;2.53;2.20;;;;;;;18.29;68.67;102238.78;6312925;28;20255;-74
2021/09/06 12:42:50;;;;;;;2.72;2.17;;;;;;;18.25;67.14;102242.28;6313170;28;20251;-74
2021/09/06 12:45:54;;;;;;;2.80;2.70;;;;;;;18.34;67.15;102233.41;6312848;28;20214;-76
2021/09/06 12:48:59;;;;;;;2.15;2.00;;;;;;;18.41;66.88;102234.16;6312522;28;20215;-74
2021/09/06 12:52:04;;;;;;;3.10;2.40;;;;;;;18.37;67.04;102224.66;6311887;28;20183;-75
2021/09/06 12:55:11;;;;;;;3.13;2.20;;;;;;;18.42;67.54;102227.56;6312106;28;20371;-74
2021/09/06 12:58:17;;;;;;;2.58;2.42;;;;;;;18.43;66.91;102229.25;6312753;28;20190;-74
2021/09/06 13:01:22;;;;;;;3.17;2.40;;;;;;;18.37;67.01;102230.19;6312225;28;20183;-75
2021/09/06 13:04:26;;;;;;;5.97;2.55;;;;;;;18.35;66.86;102226.81;6312618;28;20188;-75
2021/09/06 13:07:31;;;;;;;2.85;2.65;;;;;;;18.44;67.38;102228.16;6311359;28;20501;-74
2021/09/06 13:10:38;;;;;;;2.80;2.50;;;;;;;18.49;67.45;102210.91;6312662;28;20250;-73
2021/09/06 13:13:43;;;;;;;2.28;2.17;;;;;;;18.52;67.61;102221.47;6312685;28;20191;-75
2021/09/06 13:16:47;;;;;;;2.20;2.13;;;;;;;18.65;67.23;102221.28;6311453;28;20250;-75
2021/09/06 13:19:51;;;;;;;2.70;2.50;;;;;;;18.62;66.79;102221.75;6312439;28;20194;-75
2021/09/06 13:22:56;;;;;;;3.67;2.47;;;;;;;18.71;67.11;102226.72;6310967;28;20184;-75
2021/09/06 13:26:04;;;;;;;4.43;2.47;;;;;;;18.74;65.40;102225.41;6311498;28;20241;-74
2021/09/06 13:29:09;;;;;;;2.17;2.17;;;;;;;18.69;66.25;102228.84;6310648;28;20246;-75
2021/09/06 13:32:14;;;;;;;2.53;2.35;;;;;;;18.75;66.75;102227.06;6310388;28;20477;-75
2021/09/06 13:35:18;;;;;;;7.55;2.63;;;;;;;18.91;65.61;102222.75;6310995;28;20188;-75
2021/09/06 13:38:24;;;;;;;6.07;2.70;;;;;;;19.02;66.52;102210.88;6311437;28;20183;-75
2021/09/06 13:41:32;;;;;;;3.47;2.45;;;;;;;18.93;66.11;102223.34;6310212;28;20187;-74
2021/09/06 13:44:37;;;;;;;2.80;2.58;;;;;;;19.04;66.48;102222.53;6311211;28;20251;-75
2021/09/06 13:47:41;;;;;;;5.50;2.75;;;;;;;19.07;65.70;102219.28;6311261;28;20250;-74
2021/09/06 13:50:45;;;;;;;2.88;2.58;;;;;;;19.18;64.96;102213.75;6310883;28;20215;-74
2021/09/06 13:53:49;;;;;;;4.45;2.58;;;;;;;19.12;68.18;102208.34;6311275;28;20263;-74
2021/09/06 13:56:55;;;;;;;2.67;2.47;;;;;;;19.08;66.26;102198.84;6309823;28;20474;-74
2021/09/06 14:00:03;;;;;;;2.83;2.60;;;;;;;19.14;65.07;102200.63;6311089;28;20187;-74
2021/09/06 14:03:21;;;;;;;6.93;2.60;;;;;;;19.18;65.12;102201.88;6309876;28;20246;-74
2021/09/06 14:06:26;;;;;;;2.65;2.50;;;;;;;19.13;63.41;102208.09;6310253;28;20188;-74
2021/09/06 14:09:30;;;;;;;4.53;2.63;;;;;;;19.09;64.11;102200.53;6310781;28;20239;-74
2021/09/06 14:12:36;;;;;;;2.80;2.60;;;;;;;19.23;63.02;102196.44;6309812;28;20550;-74
2021/09/06 14:15:41;;;;;;;2.33;2.30;;;;;;;19.15;62.12;102188.50;6313497;28;20190;-73
2021/09/06 14:18:46;;;;;;;1.92;1.90;;;;;;;19.12;60.35;102200.03;6314589;28;20183;-74
2021/09/06 14:21:50;;;;;;;5.15;2.05;;;;;;;19.10;58.44;102196.69;6315170;28;20192;-74
2021/09/06 14:24:54;;;;;;;3.17;1.80;;;;;;;18.87;56.29;102197.53;6314981;28;20241;-74
2021/09/06 14:28:00;;;;;;;2.78;1.67;;;;;;;18.90;55.67;102197.00;6314530;28;20554;-74
2021/09/06 14:31:04;;;;;;;1.67;1.60;;;;;;;18.89;55.93;102194.50;6314938;28;20218;-74
2021/09/06 14:34:10;;;;;;;3.25;1.70;;;;;;;18.86;56.34;102206.03;6315667;28;20263;-74
2021/09/06 14:37:14;;;;;;;3.45;1.70;;;;;;;18.84;56.90;102202.69;6314054;28;20263;-74
2021/09/06 14:40:18;;;;;;;1.52;1.45;;;;;;;18.77;57.96;102207.47;6314122;28;20414;-74
2021/09/06 14:43:26;;;;;;;1.60;1.48;;;;;;;18.73;56.01;102202.44;6315248;28;20215;-74
2021/09/06 14:46:48;;;;;;;1.40;1.40;;;;;;;18.64;56.07;102203.84;6315320;28;20184;-74
2021/09/06 14:49:52;;;;;;;1.70;1.35;;;;;;;18.64;56.35;102220.41;6314870;28;20217;-74
2021/09/06 14:52:57;;;;;;;3.05;1.60;;;;;;;18.67;56.02;102208.03;6314787;28;20190;-74
2021/09/06 14:56:04;;;;;;;4.43;1.75;;;;;;;18.62;56.56;102211.53;6314769;28;20247;-75
2021/09/06 14:59:10;;;;;;;2.63;1.60;;;;;;;18.74;56.40;102204.13;6315040;28;20183;-74
2021/09/06 15:02:14;;;;;;;6.65;1.55;;;;;;;18.69;57.42;102217.78;6314908;28;20187;-74
2021/09/06 15:05:21;;;;;;;1.50;1.50;;;;;;;18.64;56.12;102198.31;6314907;28;20183;-75
2021/09/06 15:08:25;;;;;;;1.38;1.27;;;;;;;18.70;56.80;102207.56;6313890;28;20183;-75
2021/09/06 15:11:29;;;;;;;1.35;1.35;;;;;;;18.65;56.83;102208.28;6314989;28;20274;-75
2021/09/06 15:14:37;;;;;;;1.42;1.40;;;;;;;18.58;56.82;102210.34;6315025;28;20193;-75
2021/09/06 15:17:42;;;;;;;1.77;1.60;;;;;;;18.68;57.16;102210.59;6313957;28;20183;-75
2021/09/06 15:20:47;;;;;;;1.67;1.58;;;;;;;18.70;56.62;102197.38;6314388;28;20188;-74
2021/09/06 15:23:53;;;;;;;3.33;1.70;;;;;;;18.68;56.66;102198.69;6313663;28;20413;-74
2021/09/06 15:26:57;;;;;;;1.50;1.40;;;;;;;18.71;56.02;102199.06;6314005;28;20242;-74
2021/09/06 15:30:28;;;;;;;7.07;1.73;;;;;;;18.68;56.24;102194.00;6313449;28;20493;-75
2021/09/06 15:33:32;;;;;;;1.27;1.27;;;;;;;18.66;57.08;102209.16;6314088;28;20191;-73
2021/09/06 15:36:38;;;;;;;2.83;1.60;;;;;;;18.58;59.91;102210.34;6314271;28;20230;-73
2021/09/06 15:39:45;;;;;;;1.60;1.60;;;;;;;18.41;57.10;102198.22;6313265;28;20479;-74
2021/09/06 15:42:49;;;;;;;2.67;1.73;;;;;;;18.46;57.39;102203.88;6314698;28;20190;-75
2021/09/06 15:45:55;;;;;;;1.70;1.70;;;;;;;18.37;56.68;102201.69;6314354;28;20260;-74
2021/09/06 15:49:02;;;;;;;2.60;1.60;;;;;;;18.42;57.25;102197.16;6313120;28;20494;-74
2021/09/06 15:52:06;;;;;;;1.40;1.40;;;;;;;18.41;57.24;102203.75;6313998;28;20215;-74
2021/09/06 15:55:11;;;;;;;1.67;1.55;;;;;;;18.35;56.72;102199.19;6313871;28;20187;-74
2021/09/06 15:58:15;;;;;;;1.58;1.40;;;;;;;18.24;56.73;102197.22;6314174;28;20294;-74
2021/09/06 16:01:22;;;;;;;1.70;1.65;;;;;;;18.32;57.46;102205.19;6313424;28;20209;-74
2021/09/06 16:04:27;;;;;;;2.47;1.40;;;;;;;18.30;56.61;102206.50;6313867;28;20229;-74
2021/09/06 16:07:31;;;;;;;4.00;1.42;;;;;;;18.15;59.03;102199.47;6313968;28;20246;-74
2021/09/06 16:10:38;;;;;;;3.28;1.60;;;;;;;18.06;60.22;102206.41;6313816;28;20222;-74
2021/09/06 16:13:42;;;;;;;3.03;1.70;;;;;;;17.92;61.06;102199.34;6313881;28;20230;-74
2021/09/06 16:16:51;;;;;;;1.60;1.55;;;;;;;17.93;58.64;102200.19;6313530;28;20247;-74
2021/09/06 16:19:57;;;;;;;1.95;1.73;;;;;;;17.89;58.41;102187.94;6313835;28;20251;-74
2021/09/06 16:23:01;;;;;;;3.38;1.60;;;;;;;17.91;57.90;102194.06;6312227;28;20254;-74
2021/09/06 16:26:08;;;;;;;1.60;1.60;;;;;;;17.89;56.81;102199.00;6312781;28;20184;-74
2021/09/06 16:29:12;;;;;;;1.58;1.58;;;;;;;17.91;57.65;102194.94;6312188;28;20534;-74
2021/09/06 16:32:19;;;;;;;2.05;1.80;;;;;;;17.76;57.88;102186.22;6312306;28;20238;-74
2021/09/06 16:35:24;;;;;;;5.93;1.92;;;;;;;17.74;58.53;102191.13;6312962;28;20247;-74
2021/09/06 16:38:29;;;;;;;2.58;1.90;;;;;;;17.65;59.17;102175.09;6312752;28;20183;-74
2021/09/06 16:41:34;;;;;;;1.80;1.70;;;;;;;17.65;58.31;102181.47;6313184;28;20188;-74
2021/09/06 16:44:40;;;;;;;2.17;1.58;;;;;;;17.57;58.77;102187.28;6312567;28;20436;-74
2021/09/06 16:47:46;;;;;;;4.72;1.70;;;;;;;17.68;59.34;102181.00;6313349;28;20281;-75
2021/09/06 16:50:50;;;;;;;4.18;1.85;;;;;;;17.62;60.05;102186.59;6311710;28;20213;-74
2021/09/06 16:53:54;;;;;;;6.57;2.00;;;;;;;17.48;61.61;102175.69;6313043;28;20190;-74
2021/09/06 16:56:58;;;;;;;5.78;2.30;;;;;;;17.54;60.62;102178.66;6311425;28;20190;-74
2021/09/06 17:00:03;;;;;;;3.80;2.30;;;;;;;17.46;59.33;102188.84;6312157;28;20184;-74
2021/09/06 17:03:16;;;;;;;12.32;3.90;;;;;;;17.40;60.99;102184.28;6312284;28;20194;-74
2021/09/06 17:06:20;;;;;;;7.18;3.30;;;;;;;17.20;64.27;102189.19;6311580;28;20476;-74
2021/09/06 17:09:24;;;;;;;13.57;3.50;;;;;;;17.27;62.22;102178.91;6312446;28;20267;-74
2021/09/06 17:12:29;;;;;;;12.85;3.13;;;;;;;17.12;61.87;102185.88;6312393;28;20211;-75
2021/09/06 17:15:36;;;;;;;3.88;2.90;;;;;;;17.08;64.82;102188.22;6312238;28;20183;-74
2021/09/06 17:18:41;;;;;;;3.22;2.40;;;;;;;16.97;64.93;102188.97;6312671;28;20231;-74
2021/09/06 17:21:49;;;;;;;13.05;2.78;;;;;;;16.98;64.66;102184.28;6311084;28;20210;-74
2021/09/06 17:24:54;;;;;;;10.82;2.80;;;;;;;17.05;64.62;102196.94;6312432;28;20269;-74
2021/09/06 17:27:58;;;;;;;12.38;2.92;;;;;;;16.88;65.85;102193.09;6311356;28;20259;-74
2021/09/06 17:31:02;;;;;;;9.60;2.38;;;;;;;16.75;66.62;102195.94;6310984;28;20215;-74
2021/09/06 17:34:10;;;;;;;5.10;2.33;;;;;;;16.65;67.73;102185.44;6310828;28;20402;-74
2021/09/06 17:37:16;;;;;;;6.13;2.15;;;;;;;16.67;67.45;102182.44;6312076;28;20237;-76
2021/09/06 17:40:20;;;;;;;9.70;2.10;;;;;;;16.65;66.63;102190.09;6312022;28;20248;-75
2021/09/06 17:43:27;;;;;;;13.15;2.35;;;;;;;16.40;68.62;102180.94;6311564;28;20187;-75
2021/09/06 17:46:32;;;;;;;7.10;2.47;;;;;;;16.54;69.69;102182.56;6311865;28;20190;-75
2021/09/06 17:49:37;;;;;;;2.55;2.35;;;;;;;16.47;68.30;102187.25;6314707;28;20219;-75
2021/09/06 17:52:41;;;;;;;15.52;2.53;;;;;;;16.33;67.96;102191.19;6316752;28;20304;-75
2021/09/06 17:55:46;;;;;;;4.75;2.20;;;;;;;16.39;67.81;102195.78;6317290;28;20183;-74
2021/09/06 17:58:50;;;;;;;16.27;2.40;;;;;;;16.48;64.70;102188.94;6316803;28;20187;-74
2021/09/06 18:01:55;;;;;;;8.00;2.17;;;;;;;16.35;66.45;102186.28;6315801;28;20589;-74
2021/09/06 18:05:01;;;;;;;9.82;2.88;;;;;;;16.43;65.61;102202.53;6316890;28;20187;-74
2021/09/06 18:08:08;;;;;;;6.72;2.40;;;;;;;16.51;63.57;102183.81;6316783;28;20205;-75
2021/09/06 18:11:12;;;;;;;4.78;2.22;;;;;;;16.66;61.52;102186.28;6316510;28;20241;-74
2021/09/06 18:14:17;;;;;;;3.80;2.13;;;;;;;16.61;64.33;102184.22;6315433;28;20400;-75
2021/09/06 18:17:33;;;;;;;5.65;2.10;;;;;;;16.49;63.78;102179.59;6315265;28;20479;-75
2021/09/06 18:20:39;;;;;;;5.07;2.20;;;;;;;16.36;65.27;102179.72;6316663;28;20215;-75
2021/09/06 18:23:44;;;;;;;7.03;1.98;;;;;;;16.34;66.60;102181.81;6316571;28;20219;-75
2021/09/06 18:26:48;;;;;;;3.95;2.00;;;;;;;16.29;67.52;102180.59;6316107;28;20227;-75
2021/09/06 18:29:53;;;;;;;4.60;2.10;;;;;;;16.16;67.61;102190.84;6315180;28;20553;-75
2021/09/06 18:32:57;;;;;;;11.73;2.38;;;;;;;16.25;67.85;102173.84;6316017;28;20393;-75
2021/09/06 18:36:04;;;;;;;13.68;2.13;;;;;;;16.20;67.83;102189.34;6315099;28;20214;-75
2021/09/06 18:39:09;;;;;;;9.63;2.60;;;;;;;16.22;65.12;102188.06;6314957;28;20471;-75
2021/09/06 18:42:13;;;;;;;5.35;2.13;;;;;;;16.16;65.91;102191.69;6315827;28;20226;-75
2021/09/06 18:45:17;;;;;;;4.97;2.08;;;;;;;16.02;68.84;102187.31;6315079;28;20184;-76
2021/09/06 18:48:24;;;;;;;4.03;1.80;;;;;;;16.11;69.73;102183.25;6316149;28;20205;-75
2021/09/06 18:51:30;;;;;;;2.45;2.05;;;;;;;16.15;66.81;102178.97;6315403;28;20190;-75
2021/09/06 18:54:35;;;;;;;9.57;2.33;;;;;;;16.11;66.37;102187.91;6316076;28;20275;-75
2021/09/06 18:57:39;;;;;;;5.78;2.40;;;;;;;16.16;67.78;102186.19;6313751;28;20262;-75
2021/09/06 19:00:48;;;;;;;5.55;2.22;;;;;;;16.16;69.33;102180.69;6314684;28;20251;-74
2021/09/06 19:03:53;;;;;;;5.95;2.20;;;;;;;16.21;67.72;102172.59;6315631;28;20257;-73
2021/09/06 19:07:00;;;;;;;11.43;2.58;;;;;;;16.03;68.08;102186.28;6315662;28;20187;-76
2021/09/06 19:10:07;;;;;;;13.75;2.28;;;;;;;16.03;69.54;102178.00;6315207;28;20216;-75
2021/09/06 19:13:13;;;;;;;5.13;2.30;;;;;;;16.07;68.59;102187.53;6315196;28;20284;-75
2021/09/06 19:16:21;;;;;;;7.18;2.30;;;;;;;16.15;66.93;102190.00;6315116;28;20222;-75
2021/09/06 19:19:27;;;;;;;8.38;2.20;;;;;;;16.01;70.92;102193.91;6314435;28;20191;-75
2021/09/06 19:22:33;;;;;;;2.25;2.05;;;;;;;16.14;67.17;102185.56;6314917;28;20195;-74
2021/09/06 19:25:37;;;;;;;4.43;2.42;;;;;;;16.01;67.47;102191.16;6314849;28;20184;-74
2021/09/06 19:28:43;;;;;;;9.18;2.40;;;;;;;16.00;69.63;102188.59;6314232;28;20231;-74
2021/09/06 19:31:48;;;;;;;4.43;2.30;;;;;;;15.96;69.40;102190.97;6314774;28;20184;-75
2021/09/06 19:34:52;;;;;;;2.67;2.40;;;;;;;15.90;70.52;102197.34;6313562;28;20486;-75
2021/09/06 19:38:00;;;;;;;8.80;3.10;;;;;;;15.91;69.38;102187.19;6313579;28;20206;-74
2021/09/06 19:41:04;;;;;;;15.25;4.10;;;;;;;15.86;70.47;102201.63;6313384;28;20205;-75
2021/09/06 19:44:11;;;;;;;8.95;3.88;;;;;;;15.92;71.01;102195.22;6313696;28;20209;-74
2021/09/06 19:47:18;;;;;;;12.30;4.00;;;;;;;15.98;71.05;102197.09;6313680;28;20538;-74
2021/09/06 19:50:24;;;;;;;5.95;3.38;;;;;;;15.91;73.22;102199.03;6314529;28;20405;-74
2021/09/06 19:53:30;;;;;;;9.60;4.00;;;;;;;15.76;71.42;102198.50;6314227;28;20542;-74
2021/09/06 19:56:38;;;;;;;19.30;3.97;;;;;;;15.84;72.31;102203.75;6314914;28;20462;-75
2021/09/06 19:59:45;;;;;;;10.98;3.50;;;;;;;15.82;72.51;102200.34;6314196;28;20206;-75
2021/09/06 20:02:50;;;;;;;10.40;3.65;;;;;;;15.75;74.08;102205.03;6314332;28;20226;-75
2021/09/06 20:05:55;;;;;;;4.93;3.00;;;;;;;15.60;73.18;102201.72;6312949;28;20498;-77
2021/09/06 20:09:05;;;;;;;9.50;3.90;;;;;;;15.60;74.18;102207.22;6314092;28;20184;-75
2021/09/06 20:12:12;;;;;;;9.57;3.58;;;;;;;15.69;73.21;102200.41;6313216;28;20188;-75
2021/09/06 20:15:16;;;;;;;7.20;3.60;;;;;;;15.66;73.60;102195.34;6313479;28;20274;-75
2021/09/06 20:18:22;;;;;;;5.40;3.08;;;;;;;15.54;73.71;102199.81;6312661;28;20521;-75
2021/09/06 20:21:26;;;;;;;7.18;3.08;;;;;;;15.52;74.96;102199.19;6313797;28;20187;-74
2021/09/06 20:24:35;;;;;;;9.38;2.65;;;;;;;15.55;74.49;102187.78;6313572;28;20187;-75
2021/09/06 20:27:39;;;;;;;6.88;2.90;;;;;;;15.52;74.30;102190.94;6312502;28;20289;-74
2021/09/06 20:30:45;;;;;;;23.88;3.17;;;;;;;15.45;74.13;102199.25;6312271;28;20206;-75
2021/09/06 20:33:49;;;;;;;8.48;2.83;;;;;;;15.54;75.04;102197.06;6313231;28;20305;-75
2021/09/06 20:36:54;;;;;;;10.77;2.60;;;;;;;15.59;76.76;102189.00;6312173;28;20192;-74
2021/09/06 20:40:02;;;;;;;9.13;2.45;;;;;;;15.54;76.31;102192.41;6313455;28;20263;-75
2021/09/06 20:43:09;;;;;;;8.85;2.97;;;;;;;15.52;77.37;102200.06;6313045;28;20250;-74